Nashville, TN

2:25 AM CDT en Septiembre 16, 2014 (GMT -0500)
Cumberland Gardens | Change Station
CLOSE
Current Station
Estación meteorológica personal
Location: Nashville, TN
Altura: 476 ft
Estaciones meteorológicas cercanas

Alt 476 ft 36.18 °N, 86.82 °W | Updated 2 seconds ago

Nublado
Nublado
66.6 ° F
Sensación térmica 66.6 ° F
N
0.0
Viento Variable Viento desde SO
Gusts 0.0 mph

Hoy
Alta -- | Baja -- ° F
--% Posibilidad de precipitaciones
Ayer
Alta -- | Baja -- ° F
Precip. -- pul
6:30 AM 6:52 PM
Gibosa menguante, 48% visible
Presión 30.10 pul
Visibilidad 10.0 Millas
Nubes Nublado 8500 ft
Punto de rocío 66 ° F
Humedad 98%
Precipitaciones 0.00 pul
Espesor de la nieve No disponible.
UV 0 de una escala de 12
Polen 7.90 de una escala de 12
Ozono Buena
PM2.5 Moderada
Flu Activity No disponible.
METAR KBNA 160653Z 00000KT 10SM OVC085 19/18 A3011 RMK AO2 SLP192 T01890178

More Conditions Fewer Conditions

Presión 30.10 pul
Visibilidad 10.0 Millas
Nubes Nublado 8500 ft
Punto de rocío 66 ° F
Humedad 98%
Precipitaciones 0.00 pul
Espesor de la nieve No disponible.
UV 0 de una escala de 12
Polen 7.90 de una escala de 12
Ozono Buena
PM2.5 Moderada
Flu Activity No disponible.
METAR KBNA 160653Z 00000KT 10SM OVC085 19/18 A3011 RMK AO2 SLP192 T01890178

More Conditions Fewer Conditions

10-Day Weather Forecast

Almanac

Astronomía

Sep. 16, 2014 Salida Puesta
Hora real 6:30 AM CDT 6:52 PM CDT
Crepúsculo civil 6:04 AM CDT 7:18 PM CDT
Crepúsculo náutico 5:34 AM CDT 7:48 PM CDT
Crepúsculo astronómico 5:03 AM CDT 8:19 PM CDT
Luna Sin salida de luna 2:08 PM CDT
Horas de luz 13h 13m
Horas de luz
12h 22m
Tomorrow will be 2m 16s shorter.
Gibosa menguante, 48% of the Moon is Illuminated
Hoy
Gibosa menguante
Sep 24
Nueva
Oct 1
Cuarto creciente
Oct 8
Luna llena
Oct 15
Cuarto menguante

Extremos de hoy

Máximos del estado Bajos del estado

Community

WunderPhotos

Upload Photos

1,753,699 ¡fotos cargadas!

Nearby

Calidad del aire

  Calidad del aire Índice AQ Contaminante
Ayer Buena
PM2.5
Ayer Buena
OZONE
Real Moderada
PM2.5
Real Buena
OZONE
Martes Moderada
PM2.5
Martes Buena
OZONE
Miércoles Buena
OZONE
Miércoles Buena
PM2.5

Grosos de nieve

Estación Profundido Altura
No tenemos constancia de nieve nueva.

Actividad de terremotos

Ciudad Distance Mag. Tiempo y dato
No hay informes recientes de la actividad sísmica.
Magnitud mínima muestra es 2,5.

Temperaturas de aguas costeras

Lugar Temperatura
Sin partes meteorológicos de las estaciones

Estaciones meteorológicas cercanas